Time;durP1;ratioP1;P1;durP2;ratioP2;P2;SDS_P1;SDS_P2;PMS_P1;PMS_P2;Temp;Humidity;BMP_temperature;BMP_pressure;BME280_temperature;BME280_humidity;BME280_pressure;Samples;Min_cycle;Max_cycle;Signal;HPM_P1;HPM_P2
2023/05/03 00:01:47;;;;;;;;;;;7.80;99.90;;;;;;5057234;28;20438;-67
2023/05/03 00:04:19;;;;;;;;;;;7.70;99.90;;;;;;5045886;28;19929;-66
2023/05/03 00:06:50;;;;;;;;;;;7.70;99.90;;;;;;5051375;28;19925;-66
2023/05/03 00:09:22;;;;;;;;;;;7.60;99.90;;;;;;5056909;28;20043;-66
2023/05/03 00:11:54;;;;;;;;;;;7.50;99.90;;;;;;5066440;28;19925;-66
2023/05/03 00:14:26;;;;;;;;;;;7.60;99.90;;;;;;5051630;28;19949;-66
2023/05/03 00:16:58;;;;;;;;;;;7.50;99.90;;;;;;5062190;28;19971;-66
2023/05/03 00:19:32;;;;;;;;;;;7.40;99.90;;;;;;5059726;28;20301;-66
2023/05/03 00:21:59;;;;;;;;;;;7.40;99.90;;;;;;5060009;28;19935;-66
2023/05/03 00:24:31;;;;;;;;;;;7.30;99.90;;;;;;5055670;28;19928;-66
2023/05/03 00:27:03;;;;;;;;;;;7.20;99.90;;;;;;5053455;28;19976;-66
2023/05/03 00:29:35;;;;;;;;;;;7.20;99.90;;;;;;5037445;28;19933;-66
2023/05/03 00:32:07;;;;;;;;;;;7.20;99.90;;;;;;5044446;28;19935;-66
2023/05/03 00:34:39;;;;;;;;;;;7.30;99.90;;;;;;5049578;28;19928;-66
2023/05/03 00:37:11;;;;;;;;;;;7.40;99.90;;;;;;5041500;28;19979;-66
2023/05/03 00:39:42;;;;;;;;;;;7.40;99.90;;;;;;5060994;28;19947;-66
2023/05/03 00:42:14;;;;;;;;;;;7.40;99.90;;;;;;5048622;28;19955;-66
2023/05/03 00:44:46;;;;;;;;;;;7.40;99.90;;;;;;5043773;28;20381;-66
2023/05/03 00:47:17;;;;;;;;;;;7.30;99.90;;;;;;5052977;28;20420;-66
2023/05/03 00:49:49;;;;;;;;;;;7.30;99.90;;;;;;5056951;28;20371;-66
2023/05/03 00:52:21;;;;;;;;;;;7.30;99.90;;;;;;5041648;28;19931;-66
2023/05/03 00:54:53;;;;;;;;;;;7.30;99.90;;;;;;5062911;28;19924;-66
2023/05/03 00:57:27;;;;;;;;;;;7.30;99.90;;;;;;5054831;28;20011;-66
2023/05/03 00:59:55;;;;;;;;;;;7.30;99.90;;;;;;5050759;28;19925;-66
2023/05/03 01:02:27;;;;;;;;;;;7.30;99.90;;;;;;5053679;28;19987;-66
2023/05/03 01:05:01;;;;;;;;;;;7.30;99.90;;;;;;5045430;28;20313;-66
2023/05/03 01:07:36;;;;;;;;;;;7.30;99.90;;;;;;5053421;28;20404;-66
2023/05/03 01:10:22;;;;;;;;;;;7.20;99.90;;;;;;5036113;28;19925;-66
2023/05/03 01:12:59;;;;;;;;;;;7.10;99.90;;;;;;5036842;28;19958;-66
2023/05/03 01:15:31;;;;;;;;;;;6.90;99.90;;;;;;5050120;28;19925;-66
2023/05/03 01:18:08;;;;;;;;;;;6.80;99.90;;;;;;5048662;28;19924;-67
2023/05/03 01:20:42;;;;;;;;;;;6.80;99.90;;;;;;5039193;28;19925;-66
2023/05/03 01:23:17;;;;;;;;;;;6.70;99.90;;;;;;5043947;28;19994;-66
2023/05/03 01:25:50;;;;;;;;;;;6.60;99.90;;;;;;5050083;28;19932;-66
2023/05/03 01:28:22;;;;;;;;;;;6.60;99.90;;;;;;5065737;28;19932;-66
2023/05/03 01:30:55;;;;;;;;;;;6.60;99.90;;;;;;5046437;28;19924;-66
2023/05/03 01:33:33;;;;;;;;;;;6.70;99.90;;;;;;5067888;28;19929;-66
2023/05/03 01:36:18;;;;;;;;;;;6.60;99.90;;;;;;5053467;28;20404;-66
2023/05/03 01:38:50;;;;;;;;;;;6.60;99.90;;;;;;5051345;28;19928;-66
2023/05/03 01:41:18;;;;;;;;;;;6.60;99.90;;;;;;5054643;28;19936;-66
2023/05/03 01:43:52;;;;;;;;;;;6.50;99.90;;;;;;5044853;28;19924;-66
2023/05/03 01:46:24;;;;;;;;;;;6.50;99.90;;;;;;5040922;28;19928;-66
2023/05/03 01:48:55;;;;;;;;;;;6.60;99.90;;;;;;5044504;28;19925;-66
2023/05/03 01:51:28;;;;;;;;;;;6.60;99.90;;;;;;5042776;28;20396;-66
2023/05/03 01:53:59;;;;;;;;;;;6.70;99.90;;;;;;5051230;28;19986;-66
2023/05/03 01:56:33;;;;;;;;;;;6.60;99.90;;;;;;5052231;28;19947;-66
2023/05/03 01:59:04;;;;;;;;;;;6.60;99.90;;;;;;5052993;28;19929;-66
2023/05/03 02:01:36;;;;;;;;;;;6.60;99.90;;;;;;5044040;28;19924;-66
2023/05/03 02:04:08;;;;;;;;;;;6.50;99.90;;;;;;5054387;28;19951;-64
2023/05/03 02:06:40;;;;;;;;;;;6.40;99.90;;;;;;5038477;28;19924;-64
2023/05/03 02:09:11;;;;;;;;;;;6.40;99.90;;;;;;5040510;28;20412;-64
2023/05/03 02:11:43;;;;;;;;;;;6.40;99.90;;;;;;5042998;28;19949;-64
2023/05/03 02:14:15;;;;;;;;;;;6.40;99.90;;;;;;5045186;28;20458;-64
2023/05/03 02:16:47;;;;;;;;;;;6.40;99.90;;;;;;5052078;28;19928;-64
2023/05/03 02:19:18;;;;;;;;;;;6.40;99.90;;;;;;5032408;28;19928;-64
2023/05/03 02:21:45;;;;;;;;;;;6.40;99.90;;;;;;5060147;28;19925;-64
2023/05/03 02:24:18;;;;;;;;;;;6.50;99.90;;;;;;5042954;28;19928;-64
2023/05/03 02:26:47;;;;;;;;;;;6.50;99.90;;;;;;5053627;28;19928;-64
2023/05/03 02:29:19;;;;;;;;;;;6.50;99.90;;;;;;5046350;28;19959;-64
2023/05/03 02:31:50;;;;;;;;;;;6.50;99.90;;;;;;5060039;28;19928;-64
2023/05/03 02:34:17;;;;;;;;;;;6.40;99.90;;;;;;5041076;28;19956;-64
2023/05/03 02:36:50;;;;;;;;;;;6.30;99.90;;;;;;5050018;28;19928;-64
2023/05/03 02:39:22;;;;;;;;;;;6.40;99.90;;;;;;5061984;28;19928;-64
2023/05/03 02:41:54;;;;;;;;;;;6.40;99.90;;;;;;5046222;28;20443;-64
2023/05/03 02:44:26;;;;;;;;;;;6.40;99.90;;;;;;5049549;28;19978;-63
2023/05/03 02:46:58;;;;;;;;;;;6.40;99.90;;;;;;5033226;28;19932;-64
2023/05/03 02:49:30;;;;;;;;;;;6.40;99.90;;;;;;5044334;28;19929;-64
2023/05/03 02:52:02;;;;;;;;;;;6.30;99.90;;;;;;5042553;28;19928;-64
2023/05/03 02:54:29;;;;;;;;;;;6.30;99.90;;;;;;5039953;28;19982;-64
2023/05/03 02:57:06;;;;;;;;;;;6.30;99.90;;;;;;5047785;28;19924;-64
2023/05/03 02:59:38;;;;;;;;;;;6.30;99.90;;;;;;5033515;28;19928;-64
2023/05/03 03:02:10;;;;;;;;;;;6.30;99.90;;;;;;5047289;28;20018;-64
2023/05/03 03:04:37;;;;;;;;;;;6.20;99.90;;;;;;5052280;28;20130;-64
2023/05/03 03:07:09;;;;;;;;;;;6.20;99.90;;;;;;5058755;28;19925;-64
2023/05/03 03:09:40;;;;;;;;;;;6.30;99.90;;;;;;5056427;28;19935;-64
2023/05/03 03:12:12;;;;;;;;;;;6.20;99.90;;;;;;5047483;28;19925;-63
2023/05/03 03:14:44;;;;;;;;;;;6.20;99.90;;;;;;5030571;28;19929;-64
2023/05/03 03:17:16;;;;;;;;;;;6.20;99.90;;;;;;5039323;28;19928;-68
2023/05/03 03:19:42;;;;;;;;;;;6.10;99.90;;;;;;5044149;28;19928;-63
2023/05/03 03:22:14;;;;;;;;;;;6.00;99.90;;;;;;5043399;28;19928;-64
2023/05/03 03:24:46;;;;;;;;;;;6.00;99.90;;;;;;5046032;28;19974;-64
2023/05/03 03:27:18;;;;;;;;;;;6.00;99.90;;;;;;5050995;28;19948;-64
2023/05/03 03:29:49;;;;;;;;;;;6.00;99.90;;;;;;5044110;28;19925;-64
2023/05/03 03:32:21;;;;;;;;;;;6.00;99.90;;;;;;5042132;28;20307;-64
2023/05/03 03:34:54;;;;;;;;;;;6.00;99.90;;;;;;5051987;28;20340;-64
2023/05/03 03:37:28;;;;;;;;;;;6.00;99.90;;;;;;5036453;28;20506;-64
2023/05/03 03:40:00;;;;;;;;;;;6.00;99.90;;;;;;5055913;28;19948;-64
2023/05/03 03:42:32;;;;;;;;;;;6.00;99.90;;;;;;5045614;28;20011;-64
2023/05/03 03:45:03;;;;;;;;;;;6.00;99.90;;;;;;5049505;28;19929;-64
2023/05/03 03:47:35;;;;;;;;;;;6.00;99.90;;;;;;5051694;28;20415;-64
2023/05/03 03:50:07;;;;;;;;;;;6.10;99.90;;;;;;5049838;28;19936;-64
2023/05/03 03:52:40;;;;;;;;;;;6.10;99.90;;;;;;5043238;28;19925;-64
2023/05/03 03:55:12;;;;;;;;;;;6.20;99.90;;;;;;5036318;28;20397;-64
2023/05/03 03:57:46;;;;;;;;;;;6.20;99.90;;;;;;5034110;28;19932;-64
2023/05/03 04:00:18;;;;;;;;;;;6.20;99.90;;;;;;5034120;28;20389;-64
2023/05/03 04:02:58;;;;;;;;;;;6.30;99.90;;;;;;5042604;28;19928;-64
2023/05/03 04:05:25;;;;;;;;;;;6.30;99.90;;;;;;5043623;28;19935;-68
2023/05/03 04:07:58;;;;;;;;;;;6.30;99.90;;;;;;5047492;28;19925;-64
2023/05/03 04:10:32;;;;;;;;;;;6.30;99.90;;;;;;5035636;28;19970;-64
2023/05/03 04:13:04;;;;;;;;;;;6.20;99.90;;;;;;5051753;28;20660;-64
2023/05/03 04:15:36;;;;;;;;;;;6.20;99.90;;;;;;5046913;28;19924;-70
2023/05/03 04:18:08;;;;;;;;;;;6.20;99.90;;;;;;5026274;28;20421;-63
2023/05/03 04:20:40;;;;;;;;;;;6.10;99.90;;;;;;5046687;28;19931;-65
2023/05/03 04:23:14;;;;;;;;;;;6.10;99.90;;;;;;5037188;28;20408;-65
2023/05/03 04:25:47;;;;;;;;;;;6.00;99.90;;;;;;5043879;28;19932;-63
2023/05/03 04:28:20;;;;;;;;;;;6.10;99.90;;;;;;5045458;28;19944;-64
2023/05/03 04:30:52;;;;;;;;;;;6.00;99.90;;;;;;5050047;28;19964;-64
2023/05/03 04:33:23;;;;;;;;;;;6.10;99.90;;;;;;5058747;28;20297;-64
2023/05/03 04:35:59;;;;;;;;;;;6.10;99.90;;;;;;5049887;28;20305;-64
2023/05/03 04:38:33;;;;;;;;;;;6.00;99.90;;;;;;5044606;28;19928;-64
2023/05/03 04:41:05;;;;;;;;;;;6.00;99.90;;;;;;5031216;28;19932;-64
2023/05/03 04:43:38;;;;;;;;;;;6.00;99.90;;;;;;5050895;28;19964;-64
2023/05/03 04:46:10;;;;;;;;;;;6.10;99.90;;;;;;5046269;28;20585;-63
2023/05/03 04:48:37;;;;;;;;;;;6.10;99.90;;;;;;5049521;28;19933;-64
2023/05/03 04:51:09;;;;;;;;;;;6.10;99.90;;;;;;5046305;28;19933;-63
2023/05/03 04:53:42;;;;;;;;;;;6.10;99.90;;;;;;5040996;28;19929;-64
2023/05/03 04:56:19;;;;;;;;;;;6.20;99.90;;;;;;5051268;28;20428;-63
2023/05/03 04:58:53;;;;;;;;;;;6.20;99.90;;;;;;5047834;28;19925;-63
2023/05/03 05:01:26;;;;;;;;;;;6.30;99.90;;;;;;5065037;28;20315;-64
2023/05/03 05:04:01;;;;;;;;;;;6.40;99.90;;;;;;5038820;28;19928;-63
2023/05/03 05:06:40;;;;;;;;;;;6.50;99.90;;;;;;5044295;28;19932;-64
2023/05/03 05:09:19;;;;;;;;;;;6.50;99.90;;;;;;5045554;28;19933;-64
2023/05/03 05:11:53;;;;;;;;;;;6.60;99.90;;;;;;5045768;28;20757;-66
2023/05/03 05:14:20;;;;;;;;;;;6.60;99.90;;;;;;5047841;28;19974;-66
2023/05/03 05:16:52;;;;;;;;;;;6.60;99.90;;;;;;5046293;28;20396;-66
2023/05/03 05:19:25;;;;;;;;;;;6.60;99.90;;;;;;5050338;28;20023;-66
2023/05/03 05:21:57;;;;;;;;;;;6.60;99.90;;;;;;5053776;28;20312;-66
2023/05/03 05:24:38;;;;;;;;;;;6.60;99.90;;;;;;5041763;28;19932;-67
2023/05/03 05:27:12;;;;;;;;;;;6.60;99.90;;;;;;5048190;28;19932;-67
2023/05/03 05:29:39;;;;;;;;;;;6.60;99.90;;;;;;5045982;28;19968;-66
2023/05/03 05:32:11;;;;;;;;;;;6.60;99.90;;;;;;5045360;28;19929;-66
2023/05/03 05:34:44;;;;;;;;;;;6.60;99.90;;;;;;5054770;28;19925;-66
2023/05/03 05:37:16;;;;;;;;;;;6.70;99.90;;;;;;5067723;28;19948;-66
2023/05/03 05:39:48;;;;;;;;;;;6.70;99.90;;;;;;5065922;28;19967;-66
2023/05/03 05:42:23;;;;;;;;;;;6.80;99.90;;;;;;5054054;28;20398;-66
2023/05/03 05:44:56;;;;;;;;;;;6.90;99.90;;;;;;5047920;28;19928;-66
2023/05/03 05:47:28;;;;;;;;;;;6.90;99.90;;;;;;5042596;28;19968;-66
2023/05/03 05:50:00;;;;;;;;;;;7.00;99.90;;;;;;5040304;28;19932;-66
2023/05/03 05:52:31;;;;;;;;;;;7.00;99.90;;;;;;5056886;28;19928;-66
2023/05/03 05:54:58;;;;;;;;;;;7.10;99.90;;;;;;5049692;28;19934;-66
2023/05/03 05:57:30;;;;;;;;;;;7.10;99.90;;;;;;5050876;28;20308;-66
2023/05/03 06:00:08;;;;;;;;;;;7.10;99.90;;;;;;5061375;28;19929;-66
2023/05/03 06:02:41;;;;;;;;;;;7.20;99.90;;;;;;5049101;28;19928;-66
2023/05/03 06:05:11;;;;;;;;;;;7.30;99.90;;;;;;5048107;28;19924;-66
2023/05/03 06:07:39;;;;;;;;;;;7.40;99.90;;;;;;5048071;28;19929;-66
2023/05/03 06:10:06;;;;;;;;;;;7.50;99.90;;;;;;5027520;28;20019;-66
2023/05/03 06:12:43;;;;;;;;;;;7.50;99.90;;;;;;5042406;28;19929;-66
2023/05/03 06:15:14;;;;;;;;;;;7.60;99.90;;;;;;5046254;28;19963;-66
2023/05/03 06:17:46;;;;;;;;;;;7.70;99.90;;;;;;5052314;28;20001;-66
2023/05/03 06:20:18;;;;;;;;;;;7.80;99.90;;;;;;5026260;28;19924;-66
2023/05/03 06:22:47;;;;;;;;;;;7.80;99.90;;;;;;5048583;28;19924;-64
2023/05/03 06:25:14;;;;;;;;;;;7.90;99.90;;;;;;5047878;28;19925;-64
2023/05/03 06:27:43;;;;;;;;;;;7.90;99.90;;;;;;5047873;28;20389;-64
2023/05/03 06:30:16;;;;;;;;;;;8.00;99.90;;;;;;5045736;28;19975;-64
2023/05/03 06:32:49;;;;;;;;;;;8.10;99.90;;;;;;5032909;28;19974;-64
2023/05/03 06:35:20;;;;;;;;;;;8.20;99.90;;;;;;5046831;28;19940;-64
2023/05/03 06:37:52;;;;;;;;;;;8.20;99.90;;;;;;5036068;28;19931;-64
2023/05/03 06:40:25;;;;;;;;;;;8.20;99.90;;;;;;5039628;28;19975;-64
2023/05/03 06:42:52;;;;;;;;;;;8.20;99.90;;;;;;5039199;28;20281;-64
2023/05/03 06:45:38;;;;;;;;;;;8.30;99.90;;;;;;5043560;28;19925;-64
2023/05/03 06:48:09;;;;;;;;;;;8.30;99.90;;;;;;5041156;28;19935;-64
2023/05/03 06:50:42;;;;;;;;;;;8.40;99.90;;;;;;5060092;28;19935;-63
2023/05/03 06:53:14;;;;;;;;;;;8.40;99.90;;;;;;5047059;28;19931;-64
2023/05/03 06:55:45;;;;;;;;;;;8.50;99.90;;;;;;5060131;28;19936;-66
2023/05/03 06:58:11;;;;;;;;;;;8.50;99.90;;;;;;5060042;28;19928;-66
2023/05/03 07:00:44;;;;;;;;;;;8.60;99.90;;;;;;5054307;28;19936;-66
2023/05/03 07:03:11;;;;;;;;;;;8.60;99.90;;;;;;5037653;28;19943;-66
2023/05/03 07:05:43;;;;;;;;;;;8.70;99.90;;;;;;5062216;28;19931;-65
2023/05/03 07:08:14;;;;;;;;;;;8.80;99.90;;;;;;5055739;28;19932;-65
2023/05/03 07:10:46;;;;;;;;;;;8.80;99.90;;;;;;5047395;28;19925;-66
2023/05/03 07:13:18;;;;;;;;;;;8.90;99.90;;;;;;5044788;28;20423;-66
2023/05/03 07:15:50;;;;;;;;;;;9.00;99.90;;;;;;5055381;28;19955;-66
2023/05/03 07:18:22;;;;;;;;;;;9.00;99.90;;;;;;5060392;28;19939;-66
2023/05/03 07:20:55;;;;;;;;;;;9.00;99.90;;;;;;5044349;28;19925;-67
2023/05/03 07:23:27;;;;;;;;;;;9.10;99.90;;;;;;5021966;28;20023;-66
2023/05/03 07:25:59;;;;;;;;;;;9.20;99.90;;;;;;5038999;28;20409;-66
2023/05/03 07:28:31;;;;;;;;;;;9.20;99.90;;;;;;5042885;28;19965;-67
2023/05/03 07:30:58;;;;;;;;;;;9.30;99.90;;;;;;5060539;28;19932;-66
2023/05/03 07:33:33;;;;;;;;;;;9.30;99.90;;;;;;5052220;28;19928;-66
2023/05/03 07:36:06;;;;;;;;;;;9.30;99.90;;;;;;5061618;28;20363;-66
2023/05/03 07:38:37;;;;;;;;;;;9.30;99.90;;;;;;5059807;28;19928;-66
2023/05/03 07:41:09;;;;;;;;;;;9.40;99.90;;;;;;5060029;28;19935;-66
2023/05/03 07:43:41;;;;;;;;;;;9.50;99.90;;;;;;5055514;28;20542;-67
2023/05/03 07:46:13;;;;;;;;;;;9.50;99.90;;;;;;5056527;28;20336;-66
2023/05/03 07:48:44;;;;;;;;;;;9.50;99.90;;;;;;5057129;28;20339;-66
2023/05/03 07:51:16;;;;;;;;;;;9.60;99.90;;;;;;5056734;28;19925;-66
2023/05/03 07:53:48;;;;;;;;;;;9.60;99.90;;;;;;5069120;28;19924;-67
2023/05/03 07:56:14;;;;;;;;;;;9.60;99.90;;;;;;5053895;28;20312;-66
2023/05/03 07:58:46;;;;;;;;;;;9.60;99.90;;;;;;5070811;28;19932;-67
2023/05/03 08:01:13;;;;;;;;;;;9.70;99.90;;;;;;5067641;28;19936;-66
2023/05/03 08:03:44;;;;;;;;;;;9.70;99.90;;;;;;5065661;28;20011;-66
2023/05/03 08:06:16;;;;;;;;;;;9.80;99.90;;;;;;5066511;28;19975;-66
2023/05/03 08:08:49;;;;;;;;;;;9.80;99.90;;;;;;5064733;28;20408;-66
2023/05/03 08:11:20;;;;;;;;;;;9.80;99.90;;;;;;5067697;28;19928;-66
2023/05/03 08:13:52;;;;;;;;;;;9.90;99.90;;;;;;5044295;28;19982;-66
2023/05/03 08:16:24;;;;;;;;;;;9.90;99.90;;;;;;5069800;28;20014;-66
2023/05/03 08:18:56;;;;;;;;;;;10.00;99.90;;;;;;5056047;28;19964;-66
2023/05/03 08:21:29;;;;;;;;;;;10.00;99.90;;;;;;5066901;28;19955;-66
2023/05/03 08:24:00;;;;;;;;;;;10.00;99.90;;;;;;5049848;28;20046;-66
2023/05/03 08:26:32;;;;;;;;;;;10.10;99.90;;;;;;5065441;28;19929;-67
2023/05/03 08:29:01;;;;;;;;;;;10.20;99.90;;;;;;5064634;28;19932;-66
2023/05/03 08:31:33;;;;;;;;;;;10.30;99.90;;;;;;5043940;28;19928;-66
2023/05/03 08:34:00;;;;;;;;;;;10.30;99.90;;;;;;5062294;28;19929;-66
2023/05/03 08:36:27;;;;;;;;;;;10.40;99.90;;;;;;5058296;28;20413;-66
2023/05/03 08:39:02;;;;;;;;;;;10.50;99.90;;;;;;5065042;28;20409;-66
2023/05/03 08:41:34;;;;;;;;;;;10.50;99.90;;;;;;5069645;28;19925;-67
2023/05/03 08:44:07;;;;;;;;;;;10.60;99.90;;;;;;5068281;28;19978;-66
2023/05/03 08:46:41;;;;;;;;;;;10.60;99.90;;;;;;5066488;28;19929;-66
2023/05/03 08:49:13;;;;;;;;;;;10.60;99.90;;;;;;5065928;28;19932;-66
2023/05/03 08:51:48;;;;;;;;;;;10.70;99.90;;;;;;5052566;28;19930;-67
2023/05/03 08:54:20;;;;;;;;;;;10.80;99.90;;;;;;5061733;28;19924;-66
2023/05/03 08:56:51;;;;;;;;;;;10.90;99.90;;;;;;5060134;28;19924;-66
2023/05/03 08:59:24;;;;;;;;;;;10.90;99.90;;;;;;5063182;28;19987;-67
2023/05/03 09:01:56;;;;;;;;;;;11.00;99.90;;;;;;5069505;28;20453;-66
2023/05/03 09:04:31;;;;;;;;;;;11.10;99.90;;;;;;5070227;28;19951;-67
2023/05/03 09:07:07;;;;;;;;;;;11.10;99.90;;;;;;5066289;28;19950;-67
2023/05/03 09:09:39;;;;;;;;;;;11.20;99.90;;;;;;5054182;28;19974;-66
2023/05/03 09:12:11;;;;;;;;;;;11.30;99.90;;;;;;5063914;28;20011;-64
2023/05/03 09:14:43;;;;;;;;;;;11.30;99.90;;;;;;5061394;28;19940;-64
2023/05/03 09:17:16;;;;;;;;;;;11.40;99.90;;;;;;5041888;28;19925;-64
2023/05/03 09:19:49;;;;;;;;;;;11.40;99.90;;;;;;5051438;28;20623;-64
2023/05/03 09:22:30;;;;;;;;;;;11.50;99.90;;;;;;5069174;28;19954;-64
2023/05/03 09:24:58;;;;;;;;;;;11.50;99.90;;;;;;5064266;28;20424;-65
2023/05/03 09:27:30;;;;;;;;;;;11.50;99.90;;;;;;5049029;28;19977;-64
2023/05/03 09:30:16;;;;;;;;;;;11.50;99.90;;;;;;5067122;28;20478;-64
2023/05/03 09:32:48;;;;;;;;;;;11.60;99.90;;;;;;5048594;28;20463;-64
2023/05/03 09:35:20;;;;;;;;;;;11.70;99.90;;;;;;5062242;28;19924;-64
2023/05/03 09:37:52;;;;;;;;;;;11.90;99.90;;;;;;5041211;28;19938;-64
2023/05/03 09:40:24;;;;;;;;;;;12.00;99.90;;;;;;5061976;28;19929;-63
2023/05/03 09:43:10;;;;;;;;;;;12.00;99.90;;;;;;5057097;28;19924;-64
2023/05/03 09:45:41;;;;;;;;;;;12.10;99.90;;;;;;5058524;28;19929;-64
2023/05/03 09:48:13;;;;;;;;;;;12.20;99.90;;;;;;5058689;28;19974;-64
2023/05/03 09:50:45;;;;;;;;;;;12.20;99.90;;;;;;5062509;28;20761;-64
2023/05/03 09:53:18;;;;;;;;;;;12.30;99.90;;;;;;5060621;28;19924;-64
2023/05/03 09:55:51;;;;;;;;;;;12.30;99.90;;;;;;5063454;28;20400;-64
2023/05/03 09:58:23;;;;;;;;;;;12.50;99.90;;;;;;5064558;28;19932;-63
2023/05/03 10:00:56;;;;;;;;;;;12.70;99.90;;;;;;5036573;28;19994;-63
2023/05/03 10:03:33;;;;;;;;;;;12.80;99.90;;;;;;5046587;28;20377;-64
2023/05/03 10:06:02;;;;;;;;;;;12.90;99.90;;;;;;5065010;28;20400;-64
2023/05/03 10:08:39;;;;;;;;;;;13.20;99.90;;;;;;5058908;28;19929;-64
2023/05/03 10:11:12;;;;;;;;;;;13.40;99.90;;;;;;5056498;28;19929;-64
2023/05/03 10:13:44;;;;;;;;;;;13.70;99.90;;;;;;5061595;28;19928;-64
2023/05/03 10:16:16;;;;;;;;;;;14.00;99.90;;;;;;5035815;28;20408;-64
2023/05/03 10:19:10;;;;;;;;;;;14.20;99.90;;;;;;5048712;28;19925;-64
2023/05/03 10:22:00;;;;;;;;;;;14.40;99.90;;;;;;5062685;28;19928;-64
2023/05/03 10:24:36;;;;;;;;;;;14.50;99.90;;;;;;5067778;28;19929;-64
2023/05/03 10:27:10;;;;;;;;;;;14.60;99.90;;;;;;5049258;28;19932;-64
2023/05/03 10:29:47;;;;;;;;;;;14.60;99.90;;;;;;5058718;28;19931;-64
2023/05/03 10:32:38;;;;;;;;;;;14.50;99.90;;;;;;5052735;28;19924;-64
2023/05/03 10:35:13;;;;;;;;;;;14.40;99.90;;;;;;5061115;28;19924;-64
2023/05/03 10:37:41;;;;;;;;;;;14.40;99.90;;;;;;5061244;28;20320;-64
2023/05/03 10:40:14;;;;;;;;;;;14.40;99.90;;;;;;5059700;28;19936;-64
2023/05/03 10:42:49;;;;;;;;;;;14.50;99.90;;;;;;5063199;28;20397;-64
2023/05/03 10:45:24;;;;;;;;;;;14.50;99.90;;;;;;5057865;28;19925;-64
2023/05/03 10:48:11;;;;;;;;;;;14.60;99.90;;;;;;5067716;28;19924;-64
2023/05/03 10:50:43;;;;;;;;;;;14.90;99.90;;;;;;5057498;28;19993;-67
2023/05/03 10:53:30;;;;;;;;;;;15.20;99.90;;;;;;5059463;28;19932;-64
2023/05/03 10:56:07;;;;;;;;;;;15.30;99.90;;;;;;5064458;28;19935;-64
2023/05/03 10:58:35;;;;;;;;;;;15.60;99.90;;;;;;5042130;28;19939;-64
2023/05/03 11:01:08;;;;;;;;;;;15.80;99.90;;;;;;5063566;28;19937;-64
2023/05/03 11:03:59;;;;;;;;;;;16.00;99.90;;;;;;5045171;28;19924;-64
2023/05/03 11:06:31;;;;;;;;;;;16.10;99.90;;;;;;5032709;28;19929;-64
2023/05/03 11:09:05;;;;;;;;;;;16.20;99.90;;;;;;5042970;28;19928;-64
2023/05/03 11:11:38;;;;;;;;;;;16.30;99.90;;;;;;5063544;28;19928;-66
2023/05/03 11:14:12;;;;;;;;;;;16.40;99.90;;;;;;5042876;28;19982;-66
2023/05/03 11:16:49;;;;;;;;;;;16.50;99.90;;;;;;5060613;28;19994;-66
2023/05/03 11:19:21;;;;;;;;;;;16.30;99.90;;;;;;5042357;28;19924;-67
2023/05/03 11:21:54;;;;;;;;;;;16.30;99.90;;;;;;5054950;28;19925;-65
2023/05/03 11:24:26;;;;;;;;;;;16.30;99.90;;;;;;5046806;28;20544;-65
2023/05/03 11:26:58;;;;;;;;;;;16.40;99.90;;;;;;5061509;28;19935;-64
2023/05/03 11:29:31;;;;;;;;;;;16.60;99.90;;;;;;5065676;28;19928;-64
2023/05/03 11:32:03;;;;;;;;;;;16.80;99.90;;;;;;5044112;28;20352;-64
2023/05/03 11:34:35;;;;;;;;;;;17.00;99.90;;;;;;5061895;28;20309;-64
2023/05/03 11:37:07;;;;;;;;;;;17.10;99.90;;;;;;5042934;28;19935;-64
2023/05/03 11:39:40;;;;;;;;;;;17.20;99.90;;;;;;5056198;28;19982;-64
2023/05/03 11:42:12;;;;;;;;;;;17.20;99.90;;;;;;5059006;28;20447;-64
2023/05/03 11:44:38;;;;;;;;;;;17.10;99.90;;;;;;5055654;28;20454;-64
2023/05/03 11:47:10;;;;;;;;;;;16.90;99.90;;;;;;5057459;28;19978;-65
2023/05/03 11:49:51;;;;;;;;;;;16.70;99.90;;;;;;5060643;28;20021;-64
2023/05/03 11:52:25;;;;;;;;;;;16.50;99.90;;;;;;5045458;28;19932;-65
2023/05/03 11:54:56;;;;;;;;;;;16.30;99.90;;;;;;5059762;28;19925;-65
2023/05/03 11:57:28;;;;;;;;;;;16.30;99.90;;;;;;5039922;28;19933;-64
2023/05/03 12:00:13;;;;;;;;;;;16.40;99.90;;;;;;5058466;28;19929;-64
2023/05/03 12:02:48;;;;;;;;;;;16.40;99.90;;;;;;5035870;28;19985;-64
2023/05/03 12:05:20;;;;;;;;;;;16.40;99.90;;;;;;5043204;28;20023;-64
2023/05/03 12:07:52;;;;;;;;;;;16.40;99.90;;;;;;5056798;28;19998;-66
2023/05/03 12:10:29;;;;;;;;;;;16.50;99.90;;;;;;5060519;28;19928;-64
2023/05/03 12:13:02;;;;;;;;;;;16.60;99.90;;;;;;5060772;28;19929;-64
2023/05/03 12:15:35;;;;;;;;;;;16.80;99.90;;;;;;5030100;28;19925;-65
2023/05/03 12:18:07;;;;;;;;;;;16.80;99.90;;;;;;5060088;28;19928;-67
2023/05/03 12:20:40;;;;;;;;;;;16.80;99.90;;;;;;5046809;28;19928;-62
2023/05/03 12:23:12;;;;;;;;;;;16.90;99.90;;;;;;5043459;28;19929;-63
2023/05/03 12:25:44;;;;;;;;;;;17.10;99.90;;;;;;5053597;28;20033;-62
2023/05/03 12:28:16;;;;;;;;;;;17.10;99.90;;;;;;5057654;28;19928;-62
2023/05/03 12:30:43;;;;;;;;;;;17.30;99.90;;;;;;5060135;28;19931;-62
2023/05/03 12:33:15;;;;;;;;;;;17.50;99.90;;;;;;5061528;28;19925;-62
2023/05/03 12:35:46;;;;;;;;;;;17.50;99.90;;;;;;5063272;28;20022;-63
2023/05/03 12:38:13;;;;;;;;;;;17.60;99.90;;;;;;5048398;28;19936;-62
2023/05/03 12:40:45;;;;;;;;;;;17.70;99.90;;;;;;5068001;28;20465;-62
2023/05/03 12:43:17;;;;;;;;;;;17.90;99.90;;;;;;5046874;28;19928;-61
2023/05/03 12:45:49;;;;;;;;;;;17.90;99.90;;;;;;5045305;28;19986;-62
2023/05/03 12:48:23;;;;;;;;;;;18.00;99.90;;;;;;5051800;28;19935;-62
2023/05/03 12:50:55;;;;;;;;;;;18.10;99.90;;;;;;5040989;28;20410;-62
2023/05/03 12:53:27;;;;;;;;;;;18.20;99.90;;;;;;5067811;28;20359;-62
2023/05/03 12:55:58;;;;;;;;;;;18.30;99.90;;;;;;5066359;28;20416;-62
2023/05/03 12:58:25;;;;;;;;;;;18.50;99.90;;;;;;5067309;28;19928;-62
2023/05/03 13:00:57;;;;;;;;;;;18.50;99.90;;;;;;5050195;28;19967;-62
2023/05/03 13:03:30;;;;;;;;;;;18.50;99.90;;;;;;5065543;28;19933;-62
2023/05/03 13:05:57;;;;;;;;;;;18.50;99.90;;;;;;5065458;28;19959;-63
2023/05/03 13:08:28;;;;;;;;;;;18.70;99.90;;;;;;5065443;28;19924;-62
2023/05/03 13:11:00;;;;;;;;;;;18.70;99.90;;;;;;5063009;28;20364;-62
2023/05/03 13:13:32;;;;;;;;;;;18.90;99.90;;;;;;5060894;28;19978;-62
2023/05/03 13:16:04;;;;;;;;;;;18.90;99.90;;;;;;5048832;28;19951;-62
2023/05/03 13:18:36;;;;;;;;;;;19.00;99.90;;;;;;5046989;28;19982;-62
2023/05/03 13:21:08;;;;;;;;;;;19.00;99.90;;;;;;5063321;28;19971;-62
2023/05/03 13:23:40;;;;;;;;;;;19.00;99.90;;;;;;5065171;28;19940;-62
2023/05/03 13:26:11;;;;;;;;;;;19.10;99.90;;;;;;5045013;28;19948;-62
2023/05/03 13:28:43;;;;;;;;;;;19.00;99.90;;;;;;5066719;28;19924;-62
2023/05/03 13:31:15;;;;;;;;;;;18.90;99.90;;;;;;5063816;28;19928;-62
2023/05/03 13:33:48;;;;;;;;;;;18.90;99.90;;;;;;5060359;28;20308;-62
2023/05/03 13:36:15;;;;;;;;;;;19.10;99.90;;;;;;5056073;28;20038;-62
2023/05/03 13:38:47;;;;;;;;;;;19.30;99.90;;;;;;5062818;28;19924;-62
2023/05/03 13:41:19;;;;;;;;;;;19.60;99.90;;;;;;5067313;28;19925;-62
2023/05/03 13:43:51;;;;;;;;;;;19.80;99.90;;;;;;5066905;28;19928;-62
2023/05/03 13:46:23;;;;;;;;;;;20.00;99.90;;;;;;5069094;28;20023;-62
2023/05/03 13:48:51;;;;;;;;;;;20.00;99.90;;;;;;5065777;28;20006;-62
2023/05/03 13:51:24;;;;;;;;;;;20.20;99.90;;;;;;5065030;28;19924;-62
2023/05/03 13:53:58;;;;;;;;;;;20.10;99.90;;;;;;5064359;28;19978;-62
2023/05/03 13:56:30;;;;;;;;;;;20.00;99.90;;;;;;5059751;28;19932;-62
2023/05/03 13:59:01;;;;;;;;;;;20.10;99.90;;;;;;5062497;28;19925;-62
2023/05/03 14:01:33;;;;;;;;;;;20.20;99.90;;;;;;5069334;28;19974;-61
2023/05/03 14:04:05;;;;;;;;;;;20.40;99.90;;;;;;5045685;28;20015;-62
2023/05/03 14:06:38;;;;;;;;;;;20.60;99.90;;;;;;5047010;28;19944;-62
2023/05/03 14:09:10;;;;;;;;;;;20.80;99.90;;;;;;5052952;28;19928;-62
2023/05/03 14:11:42;;;;;;;;;;;20.90;99.90;;;;;;5071909;28;19932;-63
2023/05/03 14:14:13;;;;;;;;;;;21.00;99.90;;;;;;5067275;28;19952;-63
2023/05/03 14:16:45;;;;;;;;;;;21.10;99.90;;;;;;5044905;28;19940;-63
2023/05/03 14:19:17;;;;;;;;;;;21.00;99.90;;;;;;5064644;28;19974;-62
2023/05/03 14:21:50;;;;;;;;;;;21.00;99.90;;;;;;5053270;28;19979;-63
2023/05/03 14:24:21;;;;;;;;;;;21.10;99.60;;;;;;5057759;28;19955;-63
2023/05/03 14:26:53;;;;;;;;;;;21.20;98.90;;;;;;5069368;28;19973;-63
2023/05/03 14:29:25;;;;;;;;;;;21.50;99.90;;;;;;5032076;28;19978;-63
2023/05/03 14:31:57;;;;;;;;;;;21.90;99.90;;;;;;5046076;28;19935;-63
2023/05/03 14:34:23;;;;;;;;;;;22.00;97.10;;;;;;5060079;28;20389;-63
2023/05/03 14:36:55;;;;;;;;;;;22.10;96.40;;;;;;5065851;28;19951;-63
2023/05/03 14:39:22;;;;;;;;;;;22.10;95.40;;;;;;5067820;28;20277;-63
2023/05/03 14:41:54;;;;;;;;;;;22.20;97.30;;;;;;5048729;28;20423;-63
2023/05/03 14:44:25;;;;;;;;;;;22.50;96.50;;;;;;5058101;28;19936;-63
2023/05/03 14:46:57;;;;;;;;;;;22.60;95.20;;;;;;5060263;28;19979;-63
2023/05/03 14:49:32;;;;;;;;;;;22.60;93.60;;;;;;5061847;28;19929;-63
2023/05/03 14:52:04;;;;;;;;;;;22.60;94.10;;;;;;5041615;28;19952;-62
2023/05/03 14:54:36;;;;;;;;;;;22.60;94.40;;;;;;5061820;28;20468;-63